createdAt,value
2022-10-31T00:00:49.389Z,13.95
2022-10-31T00:03:17.332Z,14.13
2022-10-31T00:05:48.139Z,14.18
2022-10-31T00:08:15.180Z,13.40
2022-10-31T00:10:42.795Z,13.63
2022-10-31T00:13:10.654Z,12.45
2022-10-31T00:15:39.285Z,12.93
2022-10-31T00:18:07.125Z,13.45
2022-10-31T00:20:33.919Z,14.02
2022-10-31T00:23:01.498Z,12.68
2022-10-31T00:25:29.645Z,13.10
2022-10-31T00:27:56.399Z,12.63
2022-10-31T00:30:23.231Z,12.88
2022-10-31T00:32:49.686Z,12.40
2022-10-31T00:35:17.853Z,12.57
2022-10-31T00:37:45.221Z,13.50
2022-10-31T00:40:12.078Z,12.57
2022-10-31T00:42:40.185Z,12.38
2022-10-31T00:45:07.039Z,12.93
2022-10-31T00:47:33.523Z,11.80
2022-10-31T00:50:00.071Z,12.70
2022-10-31T00:52:26.605Z,12.77
2022-10-31T00:54:53.156Z,12.52
2022-10-31T00:57:19.616Z,11.85
2022-10-31T00:59:46.829Z,12.32
2022-10-31T01:02:13.460Z,12.25
2022-10-31T01:04:40.280Z,11.40
2022-10-31T01:07:06.825Z,11.57
2022-10-31T01:09:33.399Z,12.18
2022-10-31T01:11:59.945Z,12.10
2022-10-31T01:14:26.512Z,11.63
2022-10-31T01:16:57.095Z,11.93
2022-10-31T01:19:23.559Z,11.43
2022-10-31T01:21:50.039Z,11.90
2022-10-31T01:24:16.534Z,12.02
2022-10-31T01:26:43.052Z,11.60
2022-10-31T01:29:09.899Z,13.40
2022-10-31T01:31:40.402Z,12.60
2022-10-31T01:34:07.554Z,11.80
2022-10-31T01:36:37.871Z,12.55
2022-10-31T01:39:09.222Z,12.68
2022-10-31T01:41:38.817Z,12.35
2022-10-31T01:44:14.093Z,12.45
2022-10-31T01:46:49.491Z,12.25
2022-10-31T01:49:22.419Z,12.18
2022-10-31T01:51:55.817Z,12.50
2022-10-31T01:54:26.852Z,12.38
2022-10-31T01:56:57.031Z,12.77
2022-10-31T01:59:29.397Z,13.07
2022-10-31T02:01:56.337Z,12.43
2022-10-31T02:04:25.522Z,12.77
2022-10-31T02:07:01.339Z,12.40
2022-10-31T02:09:28.508Z,12.45
2022-10-31T02:11:58.331Z,11.73
2022-10-31T02:14:27.315Z,11.95
2022-10-31T02:16:54.996Z,12.85
2022-10-31T02:19:56.519Z,12.40
2022-10-31T02:22:32.465Z,12.43
2022-10-31T02:25:34.742Z,12.68
2022-10-31T02:28:24.121Z,12.55
2022-10-31T02:31:09.055Z,13.07
2022-10-31T02:33:41.886Z,12.48
2022-10-31T02:36:34.487Z,12.23
2022-10-31T02:39:17.613Z,12.48
2022-10-31T02:41:49.575Z,12.05
2022-10-31T02:44:25.756Z,12.02
2022-10-31T02:47:19.814Z,12.80
2022-10-31T02:49:57.412Z,12.38
2022-10-31T02:52:29.453Z,12.05
2022-10-31T02:55:23.728Z,11.68
2022-10-31T02:58:00.016Z,11.57
2022-10-31T03:00:27.476Z,13.05
2022-10-31T03:03:16.617Z,12.52
2022-10-31T03:06:15.104Z,12.82
2022-10-31T03:08:47.666Z,13.73
2022-10-31T03:11:14.296Z,12.45
2022-10-31T03:13:50.740Z,12.15
2022-10-31T03:16:24.631Z,12.00
2022-10-31T03:19:02.120Z,11.82
2022-10-31T03:21:33.727Z,13.10
2022-10-31T03:24:02.058Z,13.00
2022-10-31T03:26:29.541Z,13.15
2022-10-31T03:29:00.727Z,13.23
2022-10-31T03:31:37.290Z,12.70
2022-10-31T03:34:08.484Z,12.27
2022-10-31T03:36:38.662Z,12.25
2022-10-31T03:39:08.890Z,12.55
2022-10-31T03:41:45.018Z,12.32
2022-10-31T03:44:19.932Z,12.68
2022-10-31T03:46:54.172Z,12.10
2022-10-31T03:49:22.387Z,12.32
2022-10-31T03:52:01.506Z,12.45
2022-10-31T03:54:45.078Z,13.13
2022-10-31T03:57:21.172Z,12.77
2022-10-31T04:00:05.746Z,12.60
2022-10-31T04:02:37.659Z,12.15
2022-10-31T04:05:05.761Z,12.30
2022-10-31T04:07:37.994Z,12.57
2022-10-31T04:10:10.824Z,12.60
2022-10-31T04:12:40.184Z,12.60
2022-10-31T04:15:16.761Z,11.25
2022-10-31T04:17:46.135Z,11.35
2022-10-31T04:20:16.843Z,12.52
2022-10-31T04:22:43.387Z,12.93
2022-10-31T04:25:09.991Z,12.30
2022-10-31T04:27:38.375Z,13.00
2022-10-31T04:30:08.375Z,12.60
2022-10-31T04:32:37.853Z,11.82
2022-10-31T04:35:04.739Z,12.13
2022-10-31T04:37:31.264Z,12.43
2022-10-31T04:39:57.917Z,12.50
2022-10-31T04:42:53.801Z,12.77
2022-10-31T04:45:21.520Z,11.98
2022-10-31T04:47:51.223Z,11.73
2022-10-31T04:50:17.753Z,11.60
2022-10-31T04:52:46.773Z,11.82
2022-10-31T04:55:16.516Z,12.38
2022-10-31T04:57:50.926Z,12.50
2022-10-31T05:00:21.449Z,12.57
2022-10-31T05:02:54.191Z,13.15
2022-10-31T05:05:29.128Z,12.40
2022-10-31T05:07:55.857Z,12.52
2022-10-31T05:10:26.666Z,11.82
2022-10-31T05:12:56.267Z,13.25
2022-10-31T05:15:41.446Z,11.50
2022-10-31T05:18:26.613Z,12.88
2022-10-31T05:20:58.905Z,13.05
2022-10-31T05:23:35.761Z,13.05
2022-10-31T05:26:02.907Z,12.35
2022-10-31T05:28:29.457Z,12.70
2022-10-31T05:30:56.031Z,12.73
2022-10-31T05:33:22.615Z,12.73
2022-10-31T05:36:08.045Z,12.38
2022-10-31T05:38:51.792Z,13.75
2022-10-31T05:41:24.988Z,13.07
2022-10-31T05:43:54.234Z,14.07
2022-10-31T05:46:26.489Z,13.52
2022-10-31T05:49:25.077Z,14.05
2022-10-31T05:52:10.231Z,14.52
2022-10-31T05:54:43.486Z,14.98
2022-10-31T05:57:10.286Z,14.30
2022-10-31T05:59:37.372Z,15.15
2022-10-31T06:02:03.883Z,13.68
2022-10-31T06:04:53.609Z,14.60
2022-10-31T06:07:20.113Z,14.15
2022-10-31T06:09:46.629Z,14.10
2022-10-31T06:12:13.442Z,14.35
2022-10-31T06:14:58.464Z,15.07
2022-10-31T06:17:24.959Z,13.90
2022-10-31T06:20:11.723Z,14.98
2022-10-31T06:22:49.727Z,14.85
2022-10-31T06:25:16.341Z,15.52
2022-10-31T06:27:48.339Z,14.50
2022-10-31T06:30:15.775Z,14.48
2022-10-31T06:32:42.922Z,16.27
2022-10-31T06:35:10.774Z,15.93
2022-10-31T06:37:38.060Z,18.17
2022-10-31T06:40:17.832Z,18.10
2022-10-31T06:43:04.278Z,18.88
2022-10-31T06:45:31.857Z,17.98
2022-10-31T06:48:24.983Z,17.02
2022-10-31T06:51:15.963Z,18.17
2022-10-31T06:53:42.484Z,19.20
2022-10-31T06:56:11.418Z,20.05
2022-10-31T06:58:44.003Z,20.05
2022-10-31T07:01:11.866Z,20.02
2022-10-31T07:03:39.302Z,20.25
2022-10-31T07:06:06.187Z,19.63
2022-10-31T07:08:33.309Z,21.23
2022-10-31T07:10:59.862Z,21.30
2022-10-31T07:13:28.793Z,20.77
2022-10-31T07:16:11.405Z,21.20
2022-10-31T07:18:38.154Z,20.48
2022-10-31T07:21:05.534Z,21.05
2022-10-31T07:23:32.178Z,19.73
2022-10-31T07:26:17.142Z,20.58
2022-10-31T07:28:48.907Z,21.23
2022-10-31T07:31:18.223Z,21.52
2022-10-31T07:33:44.794Z,20.55
2022-10-31T07:36:43.342Z,20.40
2022-10-31T07:39:12.982Z,20.75
2022-10-31T07:41:39.495Z,20.65
2022-10-31T07:44:05.983Z,22.58
2022-10-31T07:46:51.288Z,22.05
2022-10-31T07:49:36.794Z,21.60
2022-10-31T07:52:21.733Z,22.95
2022-10-31T07:55:20.609Z,21.92
2022-10-31T07:57:56.866Z,24.05
2022-10-31T08:00:23.454Z,24.25
2022-10-31T08:03:07.771Z,24.20
2022-10-31T08:06:00.502Z,25.25
2022-10-31T08:08:39.257Z,24.55
2022-10-31T08:11:07.901Z,27.65
2022-10-31T08:13:34.392Z,26.42
2022-10-31T08:16:04.980Z,28.10
2022-10-31T08:18:38.318Z,27.13
2022-10-31T08:21:07.269Z,29.20
2022-10-31T08:23:33.753Z,29.00
2022-10-31T08:26:00.301Z,31.45
2022-10-31T08:28:26.869Z,30.70
2022-10-31T08:30:54.763Z,30.08
2022-10-31T08:33:39.725Z,31.63
2022-10-31T08:36:24.661Z,33.50
2022-10-31T08:39:02.149Z,34.08
2022-10-31T08:41:30.191Z,35.33
2022-10-31T08:43:57.494Z,33.92
2022-10-31T08:46:24.070Z,35.67
2022-10-31T08:48:50.727Z,36.38
2022-10-31T08:51:19.198Z,36.25
2022-10-31T08:53:45.704Z,37.30
2022-10-31T08:56:34.781Z,37.65
2022-10-31T08:59:04.147Z,35.40
2022-10-31T09:01:46.133Z,36.55
2022-10-31T09:04:12.647Z,36.25
2022-10-31T09:06:46.411Z,34.80
2022-10-31T09:09:22.264Z,34.47
2022-10-31T09:11:48.753Z,33.05
2022-10-31T09:14:44.281Z,33.28
2022-10-31T09:17:31.289Z,32.60
2022-10-31T09:20:23.111Z,33.65
2022-10-31T09:23:06.531Z,33.00
2022-10-31T09:25:36.462Z,33.15
2022-10-31T09:28:23.746Z,32.20
2022-10-31T09:30:52.485Z,33.50
2022-10-31T09:33:38.964Z,33.65
2022-10-31T09:36:31.920Z,35.30
2022-10-31T09:38:58.497Z,34.58
2022-10-31T09:41:45.199Z,33.25
2022-10-31T09:44:52.635Z,33.67
2022-10-31T09:47:47.758Z,33.55
2022-10-31T09:51:01.187Z,33.70
2022-10-31T09:54:02.859Z,32.20
2022-10-31T09:56:32.725Z,32.67
2022-10-31T09:59:02.383Z,32.05
2022-10-31T10:01:32.682Z,32.42
2022-10-31T10:04:20.772Z,32.42
2022-10-31T10:07:33.728Z,30.33
2022-10-31T10:10:28.740Z,31.45
2022-10-31T10:13:45.417Z,31.63
2022-10-31T10:16:17.950Z,32.88
2022-10-31T10:18:53.513Z,33.65
2022-10-31T10:21:59.231Z,34.95
2022-10-31T10:24:42.600Z,34.60
2022-10-31T10:27:37.251Z,33.15
2022-10-31T10:30:14.599Z,35.28
2022-10-31T10:33:03.812Z,35.30
2022-10-31T10:35:46.713Z,34.75
2022-10-31T10:38:43.467Z,34.75
2022-10-31T10:41:22.759Z,35.58
2022-10-31T10:43:51.097Z,34.78
2022-10-31T10:47:23.999Z,34.92
2022-10-31T10:49:53.522Z,34.90
2022-10-31T10:52:50.827Z,35.33
2022-10-31T10:55:25.755Z,34.55
2022-10-31T10:57:59.330Z,34.78
2022-10-31T11:00:36.841Z,35.60
2022-10-31T11:03:05.974Z,36.20
2022-10-31T11:05:43.501Z,38.00
2022-10-31T11:08:10.027Z,36.35
2022-10-31T11:10:36.767Z,39.20
2022-10-31T11:13:05.878Z,40.08
2022-10-31T11:15:38.926Z,41.95
2022-10-31T11:18:05.638Z,39.28
2022-10-31T11:20:36.693Z,40.60
2022-10-31T11:23:15.952Z,38.75
2022-10-31T11:25:59.199Z,46.63
2022-10-31T11:28:27.952Z,41.90
2022-10-31T11:31:14.684Z,39.92
2022-10-31T11:33:48.409Z,40.55
2022-10-31T11:36:27.074Z,38.97
2022-10-31T11:38:54.952Z,40.67
2022-10-31T11:41:28.803Z,40.85
2022-10-31T11:44:24.409Z,40.88
2022-10-31T11:47:01.018Z,38.75
2022-10-31T11:49:35.495Z,39.97
2022-10-31T11:52:07.282Z,40.40
2022-10-31T11:57:03.886Z,38.20
2022-10-31T11:59:33.301Z,39.47
2022-10-31T12:02:02.348Z,37.67
2022-10-31T12:04:45.876Z,37.95
2022-10-31T12:07:12.390Z,37.38
2022-10-31T12:09:39.575Z,36.60
2022-10-31T12:12:24.875Z,36.22
2022-10-31T12:15:13.135Z,35.78
2022-10-31T12:17:53.377Z,35.40
2022-10-31T12:20:33.771Z,36.10
2022-10-31T12:23:19.139Z,36.17
2022-10-31T12:25:50.041Z,35.17
2022-10-31T12:28:46.434Z,35.25
2022-10-31T12:31:37.842Z,42.60
2022-10-31T12:34:17.660Z,40.53
2022-10-31T12:37:05.958Z,33.38
2022-10-31T12:40:02.842Z,35.47
2022-10-31T12:42:47.896Z,41.95
2022-10-31T12:45:38.091Z,32.47
2022-10-31T12:48:16.595Z,31.98
2022-10-31T12:50:54.111Z,30.10
2022-10-31T12:54:05.778Z,29.83
2022-10-31T12:56:51.648Z,28.75
2022-10-31T12:59:29.352Z,29.23
2022-10-31T13:02:14.468Z,27.67
2022-10-31T13:04:52.420Z,26.95
2022-10-31T13:07:37.675Z,26.60
2022-10-31T13:10:13.397Z,25.10
2022-10-31T13:12:41.582Z,25.05
2022-10-31T13:15:29.731Z,23.80
2022-10-31T13:17:59.936Z,23.48
2022-10-31T13:20:34.020Z,23.95
2022-10-31T13:23:23.905Z,23.77
2022-10-31T13:25:59.774Z,22.95
2022-10-31T13:28:28.883Z,22.40
2022-10-31T13:30:55.448Z,22.52
2022-10-31T13:33:29.480Z,21.65
2022-10-31T13:36:25.825Z,22.02
2022-10-31T13:39:02.777Z,21.27
2022-10-31T13:41:50.794Z,20.42
2022-10-31T13:44:24.929Z,20.02
2022-10-31T13:46:53.238Z,19.55
2022-10-31T13:49:31.610Z,20.58
2022-10-31T13:52:10.321Z,19.50
2022-10-31T13:54:42.975Z,19.40
2022-10-31T13:57:36.003Z,18.02
2022-10-31T14:00:06.350Z,19.15
2022-10-31T14:02:45.874Z,17.95
2022-10-31T14:05:28.305Z,17.23
2022-10-31T14:07:56.937Z,17.75
2022-10-31T14:10:38.968Z,17.88
2022-10-31T14:13:16.638Z,18.10
2022-10-31T14:15:57.031Z,16.73
2022-10-31T14:18:29.710Z,18.15
2022-10-31T14:20:56.191Z,16.38
2022-10-31T14:23:34.462Z,16.17
2022-10-31T14:26:08.215Z,17.27
2022-10-31T14:28:36.479Z,16.90
2022-10-31T14:31:03.002Z,16.63
2022-10-31T14:33:31.617Z,16.58
2022-10-31T14:36:20.003Z,17.13
2022-10-31T14:39:02.835Z,17.27
2022-10-31T14:42:03.871Z,17.20
2022-10-31T14:44:48.899Z,17.73
2022-10-31T14:47:27.549Z,17.40
2022-10-31T14:50:24.269Z,17.83
2022-10-31T14:52:54.679Z,17.83
2022-10-31T14:55:22.502Z,18.02
2022-10-31T14:58:02.497Z,17.63
2022-10-31T15:00:32.064Z,17.58
2022-10-31T15:03:18.074Z,17.75
2022-10-31T15:05:52.041Z,17.65
2022-10-31T15:08:38.965Z,17.63
2022-10-31T15:11:17.071Z,17.67
2022-10-31T15:13:54.590Z,17.30
2022-10-31T15:16:29.390Z,17.75
2022-10-31T15:18:58.877Z,16.83
2022-10-31T15:21:29.091Z,17.08
2022-10-31T15:23:58.781Z,17.15
2022-10-31T15:26:32.113Z,16.88
2022-10-31T15:29:05.517Z,16.77
2022-10-31T15:31:33.100Z,16.48
2022-10-31T15:34:04.983Z,17.10
2022-10-31T15:36:35.711Z,17.55
2022-10-31T15:39:04.021Z,16.55
2022-10-31T15:41:53.949Z,16.63
2022-10-31T15:44:31.333Z,16.83
2022-10-31T15:47:07.483Z,16.70
2022-10-31T15:49:33.901Z,16.30
2022-10-31T15:52:12.815Z,16.08
2022-10-31T15:54:49.927Z,15.90
2022-10-31T15:57:16.622Z,16.05
2022-10-31T15:59:47.389Z,15.43
2022-10-31T16:02:15.291Z,16.13
2022-10-31T16:04:57.338Z,15.73
2022-10-31T16:07:24.808Z,15.50
2022-10-31T16:10:00.206Z,15.38
2022-10-31T16:12:45.182Z,15.48
2022-10-31T16:15:17.175Z,15.52
2022-10-31T16:17:47.118Z,15.43
2022-10-31T16:20:23.835Z,15.65
2022-10-31T16:22:51.969Z,15.85
2022-10-31T16:25:29.941Z,15.00
2022-10-31T16:28:04.383Z,16.80
2022-10-31T16:30:48.757Z,15.38
2022-10-31T16:33:34.266Z,15.90
2022-10-31T16:36:30.103Z,15.52
2022-10-31T16:38:49.590Z,15.40
2022-10-31T16:41:16.054Z,15.27
2022-10-31T16:43:42.563Z,16.50
2022-10-31T16:48:46.557Z,15.32
2022-10-31T16:51:13.057Z,14.90
2022-10-31T16:53:44.152Z,14.93
2022-10-31T16:56:28.618Z,13.52
2022-10-31T16:58:55.123Z,14.45
2022-10-31T17:01:22.000Z,13.98
2022-10-31T17:03:48.597Z,14.07
2022-10-31T17:06:15.644Z,13.60
2022-10-31T17:08:42.158Z,13.43
2022-10-31T17:11:19.694Z,13.40
2022-10-31T17:13:46.316Z,12.63
2022-10-31T17:16:15.138Z,12.68
2022-10-31T17:18:43.649Z,13.98
2022-10-31T17:21:18.218Z,13.60
2022-10-31T17:23:45.010Z,12.75
2022-10-31T17:26:11.635Z,12.70
2022-10-31T17:28:38.232Z,12.95
2022-10-31T17:31:04.730Z,11.95
2022-10-31T17:33:31.291Z,12.02
2022-10-31T17:35:57.801Z,11.73
2022-10-31T17:38:24.462Z,12.23
2022-10-31T17:40:51.035Z,12.10
2022-10-31T17:43:17.874Z,12.30
2022-10-31T17:45:44.325Z,12.57
2022-10-31T17:48:13.667Z,12.00
2022-10-31T17:50:40.371Z,12.18
2022-10-31T17:53:06.844Z,11.32
2022-10-31T17:55:36.969Z,11.10
2022-10-31T17:58:03.923Z,10.85
2022-10-31T18:00:30.436Z,10.77
2022-10-31T18:02:56.930Z,10.57
2022-10-31T18:05:23.401Z,10.23
2022-10-31T18:07:51.104Z,11.10
2022-10-31T18:10:17.719Z,10.80
2022-10-31T18:12:44.230Z,10.55
2022-10-31T18:15:10.961Z,10.93
2022-10-31T18:17:41.059Z,10.60
2022-10-31T18:20:10.150Z,10.20
2022-10-31T18:22:36.876Z,10.70
2022-10-31T18:25:04.752Z,10.40
2022-10-31T18:27:31.339Z,9.75
2022-10-31T18:29:57.931Z,10.85
2022-10-31T18:32:24.414Z,10.05
2022-10-31T18:34:50.886Z,9.98
2022-10-31T18:37:17.352Z,10.02
2022-10-31T18:39:43.866Z,10.50
2022-10-31T18:42:10.333Z,10.18
2022-10-31T18:44:37.836Z,10.38
2022-10-31T18:47:04.364Z,10.38
2022-10-31T18:49:32.687Z,10.20
2022-10-31T18:51:59.851Z,10.18
2022-10-31T18:54:26.523Z,10.20
2022-10-31T18:56:52.987Z,9.75
2022-10-31T18:59:19.493Z,9.88
2022-10-31T19:01:46.680Z,10.60
2022-10-31T19:04:13.352Z,11.50
2022-10-31T19:06:39.829Z,11.48
2022-10-31T19:09:10.604Z,11.48
2022-10-31T19:11:38.254Z,10.97
2022-10-31T19:14:05.543Z,11.25
2022-10-31T19:16:32.055Z,9.75
2022-10-31T19:18:59.861Z,10.18
2022-10-31T19:21:26.364Z,9.75
2022-10-31T19:23:56.120Z,9.63
2022-10-31T19:26:23.050Z,10.10
2022-10-31T19:28:49.585Z,10.55
2022-10-31T19:31:16.331Z,12.30
2022-10-31T19:33:42.831Z,14.65
2022-10-31T19:36:14.851Z,14.43
2022-10-31T19:38:43.392Z,15.40
2022-10-31T19:41:14.997Z,15.50
2022-10-31T19:43:42.006Z,15.05
2022-10-31T19:46:17.618Z,14.82
2022-10-31T19:48:49.222Z,12.32
2022-10-31T19:51:20.878Z,12.23
2022-10-31T19:53:49.324Z,11.27
2022-10-31T19:56:23.984Z,10.60
2022-10-31T19:58:50.573Z,10.25
2022-10-31T20:01:19.676Z,10.23
2022-10-31T20:03:47.334Z,10.20
2022-10-31T20:06:18.752Z,11.82
2022-10-31T20:08:45.215Z,10.80
2022-10-31T20:11:11.729Z,9.80
2022-10-31T20:13:38.362Z,9.27
2022-10-31T20:16:08.441Z,10.07
2022-10-31T20:18:36.295Z,9.10
2022-10-31T20:21:14.827Z,8.73
2022-10-31T20:23:41.834Z,9.18
2022-10-31T20:26:11.524Z,8.93
2022-10-31T20:28:41.377Z,9.98
2022-10-31T20:31:15.639Z,9.98
2022-10-31T20:33:42.256Z,11.95
2022-10-31T20:36:09.230Z,10.50
2022-10-31T20:38:39.965Z,10.63
2022-10-31T20:41:09.098Z,9.88
2022-10-31T20:43:38.806Z,9.88
2022-10-31T20:46:08.178Z,9.30
2022-10-31T20:48:34.750Z,10.50
2022-10-31T20:51:04.428Z,10.85
2022-10-31T20:53:31.512Z,9.95
2022-10-31T20:56:07.594Z,10.02
2022-10-31T20:58:35.691Z,9.32
2022-10-31T21:01:02.306Z,8.95
2022-10-31T21:03:28.937Z,9.30
2022-10-31T21:06:05.192Z,8.75
2022-10-31T21:08:32.771Z,8.40
2022-10-31T21:11:00.286Z,8.63
2022-10-31T21:13:28.452Z,9.18
2022-10-31T21:16:02.810Z,8.52
2022-10-31T21:18:29.605Z,8.60
2022-10-31T21:20:56.076Z,8.50
2022-10-31T21:23:22.591Z,8.60
2022-10-31T21:25:49.155Z,8.40
2022-10-31T21:28:15.875Z,7.90
2022-10-31T21:30:47.741Z,8.70
2022-10-31T21:33:14.238Z,8.30
2022-10-31T21:35:40.867Z,8.43
2022-10-31T21:38:07.332Z,8.57
2022-10-31T21:40:33.987Z,8.73
2022-10-31T21:43:00.744Z,8.18
2022-10-31T21:45:27.506Z,7.95
2022-10-31T21:47:53.983Z,8.57
2022-10-31T21:50:20.546Z,9.15
2022-10-31T21:52:47.028Z,8.35
2022-10-31T21:55:13.658Z,8.02
2022-10-31T21:57:40.168Z,8.10
2022-10-31T22:00:08.947Z,8.00
2022-10-31T22:02:36.450Z,8.02
2022-10-31T22:05:03.477Z,8.27
2022-10-31T22:07:31.901Z,8.10
2022-10-31T22:09:58.378Z,7.78
2022-10-31T22:12:24.922Z,7.97
2022-10-31T22:14:51.397Z,7.97
2022-10-31T22:17:17.877Z,8.23
2022-10-31T22:19:44.349Z,8.45
2022-10-31T22:22:12.960Z,8.20
2022-10-31T22:24:39.423Z,8.07
2022-10-31T22:27:05.886Z,8.10
2022-10-31T22:29:32.579Z,8.32
2022-10-31T22:32:00.653Z,8.52
2022-10-31T22:34:28.398Z,8.52
2022-10-31T22:36:56.075Z,8.02
2022-10-31T22:39:22.610Z,8.40
2022-10-31T22:41:49.073Z,8.50
2022-10-31T22:44:15.541Z,8.10
2022-10-31T22:46:42.026Z,7.82
2022-10-31T22:49:14.488Z,8.38
2022-10-31T22:51:41.723Z,8.30
2022-10-31T22:54:12.685Z,8.65
2022-10-31T22:56:39.255Z,8.32
2022-10-31T22:59:06.200Z,7.90
2022-10-31T23:01:34.232Z,7.82
2022-10-31T23:04:01.646Z,8.65
2022-10-31T23:06:30.444Z,9.05
2022-10-31T23:08:57.378Z,8.63
2022-10-31T23:11:25.057Z,8.43
2022-10-31T23:14:09.271Z,8.43
2022-10-31T23:16:40.933Z,8.07
2022-10-31T23:19:08.699Z,9.07
2022-10-31T23:21:55.318Z,9.10
2022-10-31T23:24:23.270Z,8.85
2022-10-31T23:27:09.346Z,8.82
2022-10-31T23:29:39.077Z,8.75
2022-10-31T23:32:08.687Z,9.13
2022-10-31T23:34:35.356Z,8.73
2022-10-31T23:37:01.934Z,8.70
2022-10-31T23:39:29.540Z,8.70
2022-10-31T23:41:56.050Z,9.10
2022-10-31T23:44:22.589Z,9.00
2022-10-31T23:46:49.138Z,8.73
2022-10-31T23:49:15.603Z,8.82
2022-10-31T23:51:42.082Z,9.43
2022-10-31T23:54:08.667Z,8.63
2022-10-31T23:56:35.501Z,9.02
2022-10-31T23:59:02.459Z,8.02
